createdAt,value
2017-08-24T00:00:22.213Z,98.25
2017-08-24T00:01:22.172Z,98.35
2017-08-24T00:02:22.260Z,98.73
2017-08-24T00:03:22.176Z,98.45
2017-08-24T00:04:22.205Z,98.47
2017-08-24T00:05:22.187Z,98.79
2017-08-24T00:06:22.169Z,97.80
2017-08-24T00:07:23.174Z,98.28
2017-08-24T00:08:22.183Z,98.72
2017-08-24T00:09:22.197Z,98.42
2017-08-24T00:10:22.205Z,98.22
2017-08-24T00:11:22.680Z,98.18
2017-08-24T00:12:22.183Z,98.05
2017-08-24T00:13:22.679Z,97.37
2017-08-24T00:14:22.154Z,98.11
2017-08-24T00:15:22.234Z,98.76
2017-08-24T00:16:22.696Z,98.51
2017-08-24T00:17:22.234Z,98.57
2017-08-24T00:18:22.689Z,98.57
2017-08-24T00:19:22.145Z,98.42
2017-08-24T00:20:22.192Z,98.65
2017-08-24T00:21:22.151Z,98.69
2017-08-24T00:22:22.691Z,98.99
2017-08-24T00:23:22.693Z,98.75
2017-08-24T00:24:22.178Z,98.64
2017-08-24T00:25:22.829Z,98.63
2017-08-24T00:26:22.939Z,98.65
2017-08-24T00:27:22.152Z,98.74
2017-08-24T00:28:22.204Z,98.71
2017-08-24T00:29:22.148Z,99.09
2017-08-24T00:30:22.133Z,98.67
2017-08-24T00:31:22.705Z,99.02
2017-08-24T00:32:22.707Z,98.79
2017-08-24T00:33:22.219Z,98.91
2017-08-24T00:34:22.892Z,99.17
2017-08-24T00:35:22.178Z,99.43
2017-08-24T00:36:22.139Z,99.49
2017-08-24T00:37:22.100Z,99.05
2017-08-24T00:38:22.199Z,99.74
2017-08-24T00:39:22.161Z,99.42
2017-08-24T00:40:22.725Z,99.36
2017-08-24T00:41:22.721Z,99.54
2017-08-24T00:42:22.137Z,99.50
2017-08-24T00:43:22.244Z,99.71
2017-08-24T00:44:22.127Z,99.64
2017-08-24T00:45:22.120Z,99.73
2017-08-24T00:46:23.013Z,99.75
2017-08-24T00:47:22.260Z,100.00
2017-08-24T00:48:22.197Z,100.00
2017-08-24T00:49:22.197Z,100.00
2017-08-24T00:50:22.815Z,100.00
2017-08-24T00:51:22.158Z,100.00
2017-08-24T00:52:22.224Z,100.00
2017-08-24T00:53:22.760Z,100.00
2017-08-24T00:54:22.120Z,100.00
2017-08-24T00:55:22.204Z,100.00
2017-08-24T00:56:22.095Z,100.00
2017-08-24T00:57:22.746Z,100.00
2017-08-24T00:58:22.752Z,100.00
2017-08-24T00:59:22.150Z,100.00
2017-08-24T01:00:22.150Z,100.00
2017-08-24T01:01:22.175Z,100.00
2017-08-24T01:02:22.146Z,100.00
2017-08-24T01:03:22.348Z,100.00
2017-08-24T01:04:22.264Z,100.00
2017-08-24T01:05:22.114Z,100.00
2017-08-24T01:06:22.143Z,100.00
2017-08-24T01:07:22.760Z,100.00
2017-08-24T01:08:22.111Z,100.00
2017-08-24T01:09:22.873Z,100.00
2017-08-24T01:10:22.172Z,100.00
2017-08-24T01:11:22.767Z,100.00
2017-08-24T01:12:22.140Z,100.00
2017-08-24T01:13:22.117Z,100.00
2017-08-24T01:14:22.502Z,100.00
2017-08-24T01:15:22.922Z,100.00
2017-08-24T01:16:22.160Z,100.00
2017-08-24T01:17:22.797Z,100.00
2017-08-24T01:18:22.156Z,100.00
2017-08-24T01:19:23.780Z,100.00
2017-08-24T01:20:22.184Z,100.00
2017-08-24T01:21:22.069Z,100.00
2017-08-24T01:22:22.145Z,100.00
2017-08-24T01:23:22.862Z,100.00
2017-08-24T01:24:23.286Z,100.00
2017-08-24T01:25:22.219Z,100.00
2017-08-24T01:26:22.136Z,100.00
2017-08-24T01:27:22.937Z,100.00
2017-08-24T01:28:22.171Z,100.00
2017-08-24T01:29:22.169Z,100.00
2017-08-24T01:30:23.795Z,100.00
2017-08-24T01:31:22.079Z,100.00
2017-08-24T01:32:22.937Z,100.00
2017-08-24T01:33:22.124Z,100.00
2017-08-24T01:34:22.488Z,100.00
2017-08-24T01:35:22.184Z,100.00
2017-08-24T01:36:22.131Z,100.00
2017-08-24T01:37:22.151Z,100.00
2017-08-24T01:38:22.820Z,100.00
2017-08-24T01:39:22.168Z,100.00
2017-08-24T01:40:22.930Z,100.00
2017-08-24T01:41:22.812Z,100.00
2017-08-24T01:42:22.207Z,100.00
2017-08-24T01:43:22.062Z,100.00
2017-08-24T01:44:22.901Z,100.00
2017-08-24T01:45:23.019Z,100.00
2017-08-24T01:46:22.150Z,100.00
2017-08-24T01:47:22.824Z,100.00
2017-08-24T01:48:22.124Z,100.00
2017-08-24T01:49:22.849Z,100.00
2017-08-24T01:50:22.257Z,100.00
2017-08-24T01:51:23.075Z,100.00
2017-08-24T01:52:22.949Z,100.00
2017-08-24T01:53:22.090Z,100.00
2017-08-24T01:54:22.090Z,100.00
2017-08-24T01:55:22.150Z,100.00
2017-08-24T01:56:22.209Z,100.00
2017-08-24T01:57:25.026Z,100.00
2017-08-24T01:58:22.151Z,100.00
2017-08-24T01:59:22.934Z,100.00
2017-08-24T02:00:22.097Z,100.00
2017-08-24T02:01:22.843Z,100.00
2017-08-24T02:02:22.107Z,100.00
2017-08-24T02:03:22.090Z,100.00
2017-08-24T02:04:22.086Z,100.00
2017-08-24T02:05:23.082Z,100.00
2017-08-24T02:06:22.092Z,100.00
2017-08-24T02:07:22.135Z,100.00
2017-08-24T02:08:22.180Z,100.00
2017-08-24T02:09:22.140Z,100.00
2017-08-24T02:10:22.244Z,100.00
2017-08-24T02:11:22.142Z,100.00
2017-08-24T02:12:22.134Z,100.00
2017-08-24T02:13:22.110Z,100.00
2017-08-24T02:14:23.039Z,100.00
2017-08-24T02:15:22.221Z,100.00
2017-08-24T02:16:22.236Z,100.00
2017-08-24T02:17:22.141Z,100.00
2017-08-24T02:18:23.081Z,100.00
2017-08-24T02:19:22.073Z,100.00
2017-08-24T02:20:22.100Z,100.00
2017-08-24T02:21:22.047Z,100.00
2017-08-24T02:22:22.078Z,100.00
2017-08-24T02:23:23.013Z,100.00
2017-08-24T02:24:22.879Z,100.00
2017-08-24T02:25:22.184Z,100.00
2017-08-24T02:26:22.100Z,100.00
2017-08-24T02:27:22.084Z,100.00
2017-08-24T02:28:22.086Z,100.00
2017-08-24T02:29:22.888Z,100.00
2017-08-24T02:30:22.073Z,100.00
2017-08-24T02:31:22.190Z,100.00
2017-08-24T02:32:22.118Z,100.00
2017-08-24T02:33:23.892Z,100.00
2017-08-24T02:34:22.985Z,100.00
2017-08-24T02:35:22.083Z,100.00
2017-08-24T02:36:22.081Z,100.00
2017-08-24T02:37:22.072Z,100.00
2017-08-24T02:38:22.110Z,100.00
2017-08-24T02:39:22.099Z,100.00
2017-08-24T02:40:22.904Z,100.00
2017-08-24T02:41:23.032Z,99.97
2017-08-24T02:42:22.078Z,100.00
2017-08-24T02:43:22.909Z,100.00
2017-08-24T02:44:22.125Z,100.00
2017-08-24T02:45:22.034Z,100.00
2017-08-24T02:46:22.168Z,100.00
2017-08-24T02:47:22.119Z,100.00
2017-08-24T02:48:22.916Z,99.92
2017-08-24T02:49:22.118Z,99.48
2017-08-24T02:50:22.085Z,100.00
2017-08-24T02:51:22.168Z,100.00
2017-08-24T02:52:23.026Z,99.79
2017-08-24T02:53:22.103Z,99.21
2017-08-24T02:54:22.169Z,99.72
2017-08-24T02:55:22.928Z,100.00
2017-08-24T02:56:22.933Z,100.00
2017-08-24T02:57:22.056Z,98.86
2017-08-24T02:58:22.067Z,99.51
2017-08-24T02:59:23.552Z,99.40
2017-08-24T03:00:22.941Z,99.71
2017-08-24T03:01:22.140Z,99.80
2017-08-24T03:02:22.090Z,99.38
2017-08-24T03:03:23.101Z,99.93
2017-08-24T03:04:22.093Z,99.79
2017-08-24T03:05:22.085Z,99.74
2017-08-24T03:06:22.138Z,99.97
2017-08-24T03:07:22.115Z,99.60
2017-08-24T03:08:22.117Z,99.71
2017-08-24T03:09:22.053Z,100.00
2017-08-24T03:10:22.124Z,99.75
2017-08-24T03:11:22.162Z,99.71
2017-08-24T03:12:22.133Z,99.55
2017-08-24T03:13:22.679Z,99.70
2017-08-24T03:14:22.956Z,99.08
2017-08-24T03:15:22.103Z,100.00
2017-08-24T03:16:22.062Z,99.82
2017-08-24T03:17:22.120Z,99.76
2017-08-24T03:18:22.132Z,100.00
2017-08-24T03:19:22.106Z,100.00
2017-08-24T03:20:22.471Z,100.00
2017-08-24T03:21:22.521Z,100.00
2017-08-24T03:22:22.215Z,100.00
2017-08-24T03:23:22.054Z,100.00
2017-08-24T03:24:22.067Z,100.00
2017-08-24T03:25:22.118Z,99.12
2017-08-24T03:26:22.075Z,99.91
2017-08-24T03:27:22.240Z,100.00
2017-08-24T03:28:22.485Z,100.00
2017-08-24T03:29:22.057Z,99.29
2017-08-24T03:30:22.018Z,99.60
2017-08-24T03:31:22.077Z,99.07
2017-08-24T03:32:23.029Z,99.86
2017-08-24T03:33:22.080Z,99.47
2017-08-24T03:34:22.071Z,99.52
2017-08-24T03:35:22.090Z,99.75
2017-08-24T03:36:22.590Z,99.76
2017-08-24T03:37:22.115Z,100.00
2017-08-24T03:38:22.122Z,100.00
2017-08-24T03:39:22.497Z,100.00
2017-08-24T03:40:22.132Z,100.00
2017-08-24T03:41:22.042Z,100.00
2017-08-24T03:42:22.082Z,100.00
2017-08-24T03:43:22.118Z,100.00
2017-08-24T03:44:22.524Z,99.58
2017-08-24T03:45:22.057Z,99.86
2017-08-24T03:46:22.598Z,100.00
2017-08-24T03:47:22.115Z,99.82
2017-08-24T03:48:22.117Z,99.99
2017-08-24T03:49:22.043Z,99.76
2017-08-24T03:50:22.132Z,99.71
2017-08-24T03:51:22.515Z,99.79
2017-08-24T03:52:22.111Z,99.81
2017-08-24T03:53:22.655Z,99.90
2017-08-24T03:54:22.679Z,100.00
2017-08-24T03:55:22.109Z,99.61
2017-08-24T03:56:22.086Z,100.00
2017-08-24T03:57:22.105Z,100.00
2017-08-24T03:58:22.162Z,99.95
2017-08-24T03:59:22.116Z,99.86
2017-08-24T04:00:22.659Z,99.73
2017-08-24T04:01:22.565Z,99.70
2017-08-24T04:02:22.106Z,100.00
2017-08-24T04:03:22.075Z,99.98
2017-08-24T04:04:22.541Z,100.00
2017-08-24T04:05:22.048Z,99.82
2017-08-24T04:06:22.021Z,99.07
2017-08-24T04:07:22.052Z,99.47
2017-08-24T04:08:23.038Z,99.55
2017-08-24T04:09:22.559Z,99.58
2017-08-24T04:10:22.045Z,100.00
2017-08-24T04:11:22.562Z,98.89
2017-08-24T04:12:22.053Z,99.57
2017-08-24T04:13:22.677Z,99.14
2017-08-24T04:14:22.041Z,99.33
2017-08-24T04:15:22.118Z,98.78
2017-08-24T04:16:22.077Z,99.31
2017-08-24T04:17:22.676Z,99.55
2017-08-24T04:18:22.098Z,99.45
2017-08-24T04:19:22.036Z,100.00
2017-08-24T04:20:22.047Z,99.90
2017-08-24T04:21:22.061Z,99.35
2017-08-24T04:22:22.103Z,99.79
2017-08-24T04:23:22.087Z,100.00
2017-08-24T04:24:22.016Z,99.72
2017-08-24T04:25:22.023Z,99.54
2017-08-24T04:26:22.066Z,99.91
2017-08-24T04:27:22.085Z,99.57
2017-08-24T04:28:22.772Z,99.08
2017-08-24T04:29:22.062Z,99.35
2017-08-24T04:30:22.090Z,99.22
2017-08-24T04:31:22.054Z,99.37
2017-08-24T04:32:22.083Z,99.02
2017-08-24T04:33:22.054Z,98.84
2017-08-24T04:34:22.026Z,99.10
2017-08-24T04:35:22.050Z,99.02
2017-08-24T04:36:22.073Z,99.28
2017-08-24T04:37:22.081Z,98.55
2017-08-24T04:38:22.266Z,97.97
2017-08-24T04:39:22.587Z,98.16
2017-08-24T04:40:22.740Z,98.33
2017-08-24T04:41:22.696Z,98.41
2017-08-24T04:42:22.068Z,98.28
2017-08-24T04:43:22.089Z,97.91
2017-08-24T04:44:22.104Z,98.14
2017-08-24T04:45:22.117Z,98.23
2017-08-24T04:46:22.082Z,98.58
2017-08-24T04:47:22.036Z,98.32
2017-08-24T04:48:22.725Z,98.00
2017-08-24T04:49:23.620Z,98.40
2017-08-24T04:50:22.062Z,98.23
2017-08-24T04:51:21.989Z,98.08
2017-08-24T04:52:22.006Z,98.04
2017-08-24T04:53:22.035Z,97.99
2017-08-24T04:54:23.111Z,97.65
2017-08-24T04:55:22.103Z,97.54
2017-08-24T04:56:22.693Z,97.78
2017-08-24T04:57:22.067Z,97.07
2017-08-24T04:58:22.106Z,96.82
2017-08-24T04:59:22.059Z,97.34
2017-08-24T05:00:22.620Z,97.29
2017-08-24T05:01:22.085Z,96.64
2017-08-24T05:02:22.101Z,97.05
2017-08-24T05:03:22.128Z,97.24
2017-08-24T05:04:22.063Z,96.37
2017-08-24T05:05:22.648Z,97.24
2017-08-24T05:06:22.628Z,97.24
2017-08-24T05:07:22.049Z,97.76
2017-08-24T05:08:22.035Z,96.90
2017-08-24T05:09:22.127Z,96.92
2017-08-24T05:10:22.784Z,96.46
2017-08-24T05:11:22.638Z,96.69
2017-08-24T05:12:22.076Z,96.61
2017-08-24T05:13:22.030Z,96.31
2017-08-24T05:14:22.072Z,96.03
2017-08-24T05:15:22.742Z,95.43
2017-08-24T05:16:22.785Z,94.96
2017-08-24T05:17:22.014Z,94.76
2017-08-24T05:18:21.993Z,94.81
2017-08-24T05:19:22.080Z,95.72
2017-08-24T05:20:22.649Z,94.83
2017-08-24T05:21:22.045Z,94.92
2017-08-24T05:22:22.656Z,94.77
2017-08-24T05:23:22.040Z,94.68
2017-08-24T05:24:22.077Z,94.54
2017-08-24T05:25:22.037Z,94.59
2017-08-24T05:26:22.663Z,94.40
2017-08-24T05:27:22.069Z,94.36
2017-08-24T05:28:22.067Z,94.36
2017-08-24T05:29:22.846Z,93.65
2017-08-24T05:30:22.057Z,94.31
2017-08-24T05:31:22.667Z,94.21
2017-08-24T05:32:22.049Z,93.57
2017-08-24T05:33:22.019Z,92.92
2017-08-24T05:34:23.673Z,92.82
2017-08-24T05:35:22.037Z,92.60
2017-08-24T05:36:22.675Z,91.75
2017-08-24T05:37:22.078Z,92.37
2017-08-24T05:38:22.684Z,92.29
2017-08-24T05:39:22.023Z,91.84
2017-08-24T05:40:22.381Z,91.77
2017-08-24T05:41:23.684Z,91.55
2017-08-24T05:42:22.776Z,92.06
2017-08-24T05:43:22.028Z,91.80
2017-08-24T05:44:22.143Z,91.64
2017-08-24T05:45:22.029Z,91.75
2017-08-24T05:46:22.008Z,91.66
2017-08-24T05:47:22.029Z,91.59
2017-08-24T05:48:22.729Z,91.40
2017-08-24T05:49:22.005Z,91.64
2017-08-24T05:50:22.076Z,91.80
2017-08-24T05:51:22.096Z,91.41
2017-08-24T05:52:22.018Z,91.23
2017-08-24T05:53:21.962Z,91.07
2017-08-24T05:54:22.032Z,90.99
2017-08-24T05:55:21.969Z,90.00
2017-08-24T05:56:22.121Z,90.50
2017-08-24T05:57:22.106Z,90.49
2017-08-24T05:58:22.057Z,90.46
2017-08-24T05:59:22.041Z,90.17
2017-08-24T06:00:21.994Z,90.16
2017-08-24T06:01:23.713Z,89.34
2017-08-24T06:02:21.982Z,88.64
2017-08-24T06:03:22.750Z,88.36
2017-08-24T06:04:22.787Z,88.29
2017-08-24T06:05:22.043Z,87.70
2017-08-24T06:06:22.013Z,86.46
2017-08-24T06:07:22.013Z,86.42
2017-08-24T06:08:21.987Z,87.12
2017-08-24T06:09:22.037Z,86.00
2017-08-24T06:10:22.739Z,85.28
2017-08-24T06:11:23.746Z,85.85
2017-08-24T06:12:21.973Z,85.48
2017-08-24T06:13:21.962Z,85.10
2017-08-24T06:14:22.000Z,85.30
2017-08-24T06:15:22.011Z,84.94
2017-08-24T06:16:22.097Z,84.92
2017-08-24T06:17:22.762Z,84.94
2017-08-24T06:18:22.017Z,84.78
2017-08-24T06:19:21.961Z,83.67
2017-08-24T06:20:22.010Z,84.47
2017-08-24T06:21:22.074Z,85.14
2017-08-24T06:22:22.759Z,84.20
2017-08-24T06:23:22.898Z,83.81
2017-08-24T06:24:22.761Z,84.05
2017-08-24T06:25:21.978Z,83.85
2017-08-24T06:26:22.018Z,84.65
2017-08-24T06:27:22.758Z,84.10
2017-08-24T06:28:21.936Z,84.52
2017-08-24T06:29:23.759Z,84.39
2017-08-24T06:30:22.056Z,83.01
2017-08-24T06:31:22.771Z,83.41
2017-08-24T06:32:22.159Z,84.17
2017-08-24T06:33:21.999Z,84.44
2017-08-24T06:34:21.980Z,83.48
2017-08-24T06:35:22.884Z,82.81
2017-08-24T06:36:23.778Z,83.67
2017-08-24T06:37:22.011Z,83.40
2017-08-24T06:38:22.011Z,82.96
2017-08-24T06:39:21.974Z,83.37
2017-08-24T06:40:22.776Z,83.38
2017-08-24T06:41:22.088Z,83.22
2017-08-24T06:42:22.021Z,83.60
2017-08-24T06:43:22.973Z,83.71
2017-08-24T06:44:22.040Z,83.35
2017-08-24T06:45:22.001Z,82.18
2017-08-24T06:46:22.787Z,83.04
2017-08-24T06:47:22.873Z,81.50
2017-08-24T06:48:21.980Z,80.50
2017-08-24T06:49:21.969Z,80.89
2017-08-24T06:50:21.937Z,80.57
2017-08-24T06:51:22.037Z,80.14
2017-08-24T06:52:22.520Z,79.60
2017-08-24T06:53:21.960Z,81.71
2017-08-24T06:54:23.799Z,80.76
2017-08-24T06:55:21.957Z,79.94
2017-08-24T06:56:22.000Z,79.38
2017-08-24T06:57:22.810Z,78.14
2017-08-24T06:58:22.952Z,77.50
2017-08-24T06:59:21.937Z,77.45
2017-08-24T07:00:21.931Z,77.64
2017-08-24T07:01:22.822Z,76.72
2017-08-24T07:02:22.815Z,76.27
2017-08-24T07:03:22.023Z,76.34
2017-08-24T07:04:21.987Z,76.38
2017-08-24T07:05:21.987Z,76.12
2017-08-24T07:06:22.032Z,75.52
2017-08-24T07:07:22.038Z,75.66
2017-08-24T07:08:21.962Z,75.47
2017-08-24T07:09:22.999Z,75.21
2017-08-24T07:10:23.827Z,74.76
2017-08-24T07:11:21.959Z,73.73
2017-08-24T07:12:22.076Z,73.44
2017-08-24T07:13:22.834Z,73.49
2017-08-24T07:14:21.979Z,72.75
2017-08-24T07:15:23.345Z,71.59
2017-08-24T07:16:21.961Z,70.65
2017-08-24T07:17:22.063Z,71.48
2017-08-24T07:18:21.986Z,70.78
2017-08-24T07:19:22.470Z,70.73
2017-08-24T07:20:22.039Z,71.21
2017-08-24T07:21:21.958Z,71.97
2017-08-24T07:22:22.519Z,71.14
2017-08-24T07:23:21.962Z,70.76
2017-08-24T07:24:22.021Z,70.89
2017-08-24T07:25:22.482Z,70.94
2017-08-24T07:26:21.932Z,70.12
2017-08-24T07:27:21.916Z,69.28
2017-08-24T07:28:21.972Z,69.49
2017-08-24T07:29:21.943Z,69.24
2017-08-24T07:30:21.977Z,68.19
2017-08-24T07:31:22.110Z,68.39
2017-08-24T07:32:21.982Z,67.77
2017-08-24T07:33:22.868Z,67.16
2017-08-24T07:34:22.372Z,67.19
2017-08-24T07:35:21.924Z,67.51
2017-08-24T07:36:22.019Z,66.85
2017-08-24T07:37:22.008Z,65.56
2017-08-24T07:38:22.024Z,65.43
2017-08-24T07:39:21.943Z,65.94
2017-08-24T07:40:22.106Z,65.64
2017-08-24T07:41:22.380Z,65.47
2017-08-24T07:42:22.062Z,65.38
2017-08-24T07:43:22.385Z,65.00
2017-08-24T07:44:22.892Z,65.34
2017-08-24T07:45:21.988Z,64.53
2017-08-24T07:46:22.166Z,65.57
2017-08-24T07:47:21.983Z,65.22
2017-08-24T07:48:22.036Z,66.59
2017-08-24T07:49:21.980Z,66.18
2017-08-24T07:50:21.985Z,66.76
2017-08-24T07:51:22.605Z,67.58
2017-08-24T07:52:22.404Z,67.50
2017-08-24T07:53:22.180Z,67.87
2017-08-24T07:54:21.920Z,68.22
2017-08-24T07:55:21.966Z,68.93
2017-08-24T07:56:22.414Z,68.80
2017-08-24T07:57:21.931Z,71.44
2017-08-24T07:58:22.611Z,69.78
2017-08-24T07:59:22.464Z,67.34
2017-08-24T08:00:22.013Z,67.58
2017-08-24T08:01:22.418Z,67.22
2017-08-24T08:02:23.414Z,66.98
2017-08-24T08:03:22.003Z,67.19
2017-08-24T08:04:21.989Z,65.13
2017-08-24T08:05:21.944Z,65.43
2017-08-24T08:06:21.960Z,64.89
2017-08-24T08:07:21.953Z,64.77
2017-08-24T08:08:22.926Z,65.29
2017-08-24T08:09:22.061Z,65.02
2017-08-24T08:10:21.938Z,64.90
2017-08-24T08:11:22.932Z,63.75
2017-08-24T08:12:21.943Z,64.26
2017-08-24T08:13:22.052Z,64.26
2017-08-24T08:14:21.949Z,63.49
2017-08-24T08:15:22.539Z,63.55
2017-08-24T08:16:21.948Z,64.80
2017-08-24T08:17:22.442Z,64.33
2017-08-24T08:18:21.942Z,64.01
2017-08-24T08:19:21.945Z,64.09
2017-08-24T08:20:22.450Z,65.73
2017-08-24T08:21:21.958Z,63.66
2017-08-24T08:22:21.970Z,63.65
2017-08-24T08:23:22.630Z,63.85
2017-08-24T08:24:22.563Z,64.42
2017-08-24T08:25:22.460Z,63.46
2017-08-24T08:26:21.943Z,63.56
2017-08-24T08:27:21.951Z,63.51
2017-08-24T08:28:21.873Z,64.26
2017-08-24T08:29:22.018Z,63.96
2017-08-24T08:30:22.005Z,65.46
2017-08-24T08:31:21.912Z,63.72
2017-08-24T08:32:22.645Z,64.86
2017-08-24T08:33:22.586Z,63.83
2017-08-24T08:34:22.273Z,64.31
2017-08-24T08:35:21.939Z,64.54
2017-08-24T08:36:21.936Z,65.67
2017-08-24T08:37:22.475Z,63.57
2017-08-24T08:38:21.937Z,64.11
2017-08-24T08:39:22.206Z,63.49
2017-08-24T08:40:22.616Z,64.16
2017-08-24T08:41:21.942Z,64.00
2017-08-24T08:42:21.923Z,64.09
2017-08-24T08:43:22.038Z,63.87
2017-08-24T08:44:21.977Z,64.49
2017-08-24T08:45:22.018Z,64.02
2017-08-24T08:46:21.976Z,63.19
2017-08-24T08:47:21.935Z,64.42
2017-08-24T08:48:21.894Z,63.23
2017-08-24T08:49:22.570Z,63.75
2017-08-24T08:50:22.009Z,63.23
2017-08-24T08:51:21.898Z,64.01
2017-08-24T08:52:21.945Z,63.37
2017-08-24T08:53:21.994Z,64.06
2017-08-24T08:54:22.515Z,63.14
2017-08-24T08:55:22.694Z,63.53
2017-08-24T08:56:21.929Z,62.99
2017-08-24T08:57:21.894Z,61.67
2017-08-24T08:58:22.519Z,62.46
2017-08-24T08:59:21.937Z,61.58
2017-08-24T09:00:21.952Z,61.20
2017-08-24T09:01:22.540Z,61.61
2017-08-24T09:02:21.985Z,61.30
2017-08-24T09:03:21.933Z,61.01
2017-08-24T09:04:21.918Z,60.42
2017-08-24T09:05:22.282Z,60.25
2017-08-24T09:06:21.980Z,60.70
2017-08-24T09:07:21.922Z,61.76
2017-08-24T09:08:21.981Z,62.01
2017-08-24T09:09:22.534Z,61.47
2017-08-24T09:10:22.050Z,59.45
2017-08-24T09:11:22.534Z,60.14
2017-08-24T09:12:21.917Z,59.73
2017-08-24T09:13:21.893Z,59.76
2017-08-24T09:14:21.954Z,60.94
2017-08-24T09:15:23.185Z,59.30
2017-08-24T09:16:22.056Z,59.98
2017-08-24T09:17:21.943Z,58.95
2017-08-24T09:18:21.926Z,57.93
2017-08-24T09:19:22.639Z,57.79
2017-08-24T09:20:23.551Z,57.83
2017-08-24T09:21:21.959Z,58.06
2017-08-24T09:22:22.614Z,59.26
2017-08-24T09:23:21.931Z,56.80
2017-08-24T09:24:21.932Z,56.61
2017-08-24T09:25:21.950Z,57.54
2017-08-24T09:26:22.560Z,57.26
2017-08-24T09:27:21.922Z,56.51
2017-08-24T09:28:21.923Z,55.63
2017-08-24T09:29:22.015Z,55.32
2017-08-24T09:30:21.895Z,58.03
2017-08-24T09:31:22.290Z,56.39
2017-08-24T09:32:21.942Z,55.87
2017-08-24T09:33:21.929Z,56.97
2017-08-24T09:34:21.905Z,54.07
2017-08-24T09:35:22.093Z,55.28
2017-08-24T09:36:22.583Z,56.35
2017-08-24T09:37:22.580Z,53.81
2017-08-24T09:38:21.972Z,52.67
2017-08-24T09:39:21.956Z,53.67
2017-08-24T09:40:21.928Z,52.70
2017-08-24T09:41:24.097Z,53.56
2017-08-24T09:42:21.901Z,54.11
2017-08-24T09:43:21.965Z,53.36
2017-08-24T09:44:22.017Z,53.23
2017-08-24T09:45:22.028Z,53.31
2017-08-24T09:46:21.957Z,53.34
2017-08-24T09:47:21.972Z,54.02
2017-08-24T09:48:21.952Z,52.80
2017-08-24T09:49:21.905Z,51.01
2017-08-24T09:50:21.958Z,51.96
2017-08-24T09:51:22.704Z,52.20
2017-08-24T09:52:21.939Z,53.36
2017-08-24T09:53:21.925Z,50.99
2017-08-24T09:54:21.998Z,49.41
2017-08-24T09:55:21.931Z,48.28
2017-08-24T09:56:21.932Z,48.20
2017-08-24T09:57:21.913Z,49.77
2017-08-24T09:58:21.864Z,48.80
2017-08-24T09:59:21.945Z,47.89
2017-08-24T10:00:21.900Z,47.45
2017-08-24T10:01:21.954Z,49.17
2017-08-24T10:02:22.641Z,49.58
2017-08-24T10:03:21.907Z,47.08
2017-08-24T10:04:21.913Z,48.36
2017-08-24T10:05:22.634Z,49.38
2017-08-24T10:06:21.935Z,47.89
2017-08-24T10:07:23.634Z,48.39
2017-08-24T10:08:21.902Z,48.91
2017-08-24T10:09:21.918Z,48.16
2017-08-24T10:10:21.860Z,47.90
2017-08-24T10:11:21.878Z,47.37
2017-08-24T10:12:21.884Z,47.16
2017-08-24T10:13:21.901Z,47.74
2017-08-24T10:14:21.856Z,47.23
2017-08-24T10:15:21.898Z,47.45
2017-08-24T10:16:21.859Z,47.85
2017-08-24T10:17:21.992Z,47.69
2017-08-24T10:18:21.875Z,48.49
2017-08-24T10:19:21.903Z,49.79
2017-08-24T10:20:21.912Z,49.07
2017-08-24T10:21:22.661Z,46.48
2017-08-24T10:22:21.933Z,47.55
2017-08-24T10:23:21.961Z,47.09
2017-08-24T10:24:21.889Z,46.24
2017-08-24T10:25:22.049Z,47.42
2017-08-24T10:26:21.915Z,45.79
2017-08-24T10:27:21.886Z,45.70
2017-08-24T10:28:21.837Z,45.64
2017-08-24T10:29:21.944Z,44.27
2017-08-24T10:30:21.933Z,45.33
2017-08-24T10:31:22.782Z,46.39
2017-08-24T10:32:21.937Z,46.02
2017-08-24T10:33:21.891Z,46.76
2017-08-24T10:34:21.955Z,47.54
2017-08-24T10:35:21.896Z,47.84
2017-08-24T10:36:21.923Z,46.56
2017-08-24T10:37:21.933Z,46.99
2017-08-24T10:38:21.930Z,47.49
2017-08-24T10:39:22.950Z,47.07
2017-08-24T10:40:21.990Z,47.67
2017-08-24T10:41:22.763Z,48.76
2017-08-24T10:42:21.911Z,47.25
2017-08-24T10:43:21.914Z,44.94
2017-08-24T10:44:21.838Z,47.65
2017-08-24T10:45:22.852Z,46.74
2017-08-24T10:46:22.875Z,46.08
2017-08-24T10:47:21.950Z,46.29
2017-08-24T10:48:22.916Z,47.32
2017-08-24T10:49:21.928Z,48.78
2017-08-24T10:50:21.904Z,50.73
2017-08-24T10:51:22.789Z,46.50
2017-08-24T10:52:22.717Z,47.68
2017-08-24T10:53:21.880Z,47.60
2017-08-24T10:54:22.763Z,49.43
2017-08-24T10:55:21.914Z,50.85
2017-08-24T10:56:21.844Z,50.29
2017-08-24T10:57:21.849Z,48.89
2017-08-24T10:58:21.878Z,48.45
2017-08-24T10:59:22.796Z,49.88
2017-08-24T11:00:21.857Z,49.87
2017-08-24T11:01:22.844Z,48.75
2017-08-24T11:02:21.964Z,50.44
2017-08-24T11:03:21.913Z,49.59
2017-08-24T11:04:21.971Z,48.64
2017-08-24T11:05:21.942Z,47.61
2017-08-24T11:06:21.891Z,47.29
2017-08-24T11:07:21.855Z,49.60
2017-08-24T11:08:22.750Z,47.91
2017-08-24T11:09:21.933Z,46.92
2017-08-24T11:10:24.759Z,46.92
2017-08-24T11:11:21.889Z,48.81
2017-08-24T11:12:21.943Z,49.11
2017-08-24T11:13:21.914Z,47.54
2017-08-24T11:14:22.298Z,47.49
2017-08-24T11:15:21.811Z,49.56
2017-08-24T11:16:23.755Z,49.26
2017-08-24T11:17:21.858Z,50.57
2017-08-24T11:18:22.763Z,50.22
2017-08-24T11:19:21.956Z,51.64
2017-08-24T11:20:21.887Z,51.18
2017-08-24T11:21:21.868Z,51.41
2017-08-24T11:22:21.881Z,51.26
2017-08-24T11:23:21.881Z,51.27
2017-08-24T11:24:21.872Z,50.99
2017-08-24T11:25:21.821Z,51.58
2017-08-24T11:26:21.881Z,50.95
2017-08-24T11:27:21.889Z,50.83
2017-08-24T11:28:21.877Z,52.23
2017-08-24T11:29:22.890Z,50.32
2017-08-24T11:30:22.282Z,52.18
2017-08-24T11:31:21.864Z,51.57
2017-08-24T11:32:21.869Z,49.76
2017-08-24T11:33:21.864Z,49.77
2017-08-24T11:34:21.919Z,47.86
2017-08-24T11:35:21.826Z,48.00
2017-08-24T11:36:21.890Z,48.90
2017-08-24T11:37:21.905Z,50.80
2017-08-24T11:38:21.965Z,47.90
2017-08-24T11:39:21.897Z,50.16
2017-08-24T11:40:21.862Z,48.74
2017-08-24T11:41:21.878Z,47.27
2017-08-24T11:42:21.863Z,48.41
2017-08-24T11:43:21.883Z,49.67
2017-08-24T11:44:22.807Z,50.78
2017-08-24T11:45:21.921Z,49.90
2017-08-24T11:46:22.319Z,48.85
2017-08-24T11:47:21.902Z,49.70
2017-08-24T11:48:21.830Z,49.75
2017-08-24T11:49:21.938Z,50.63
2017-08-24T11:50:22.326Z,49.37
2017-08-24T11:51:21.825Z,50.54
2017-08-24T11:52:22.321Z,49.71
2017-08-24T11:53:22.327Z,48.68
2017-08-24T11:54:22.327Z,50.24
2017-08-24T11:55:22.397Z,50.12
2017-08-24T11:56:21.837Z,49.84
2017-08-24T11:57:21.879Z,48.66
2017-08-24T11:58:21.867Z,48.88
2017-08-24T11:59:21.948Z,45.77
2017-08-24T12:00:21.940Z,47.31
2017-08-24T12:01:21.834Z,47.32
2017-08-24T12:02:21.906Z,51.72
2017-08-24T12:03:21.837Z,49.42
2017-08-24T12:04:21.891Z,50.01
2017-08-24T12:05:22.868Z,48.69
2017-08-24T12:06:21.817Z,50.14
2017-08-24T12:07:21.844Z,46.81
2017-08-24T12:08:22.349Z,48.03
2017-08-24T12:09:21.878Z,48.99
2017-08-24T12:10:22.358Z,49.03
2017-08-24T12:11:21.835Z,47.77
2017-08-24T12:12:21.841Z,48.78
2017-08-24T12:13:21.802Z,47.11
2017-08-24T12:14:22.427Z,48.31
2017-08-24T12:15:22.083Z,46.36
2017-08-24T12:16:22.500Z,47.19
2017-08-24T12:17:22.383Z,48.85
2017-08-24T12:18:22.368Z,49.57
2017-08-24T12:19:22.381Z,49.19
2017-08-24T12:20:21.865Z,49.06
2017-08-24T12:21:22.373Z,45.98
2017-08-24T12:22:21.903Z,46.58
2017-08-24T12:23:21.848Z,48.54
2017-08-24T12:24:21.842Z,48.48
2017-08-24T12:25:21.920Z,47.77
2017-08-24T12:26:21.881Z,50.12
2017-08-24T12:27:21.854Z,48.10
2017-08-24T12:28:22.385Z,50.09
2017-08-24T12:29:22.665Z,46.51
2017-08-24T12:30:21.853Z,48.16
2017-08-24T12:31:21.798Z,48.57
2017-08-24T12:32:21.851Z,47.84
2017-08-24T12:33:21.889Z,47.01
2017-08-24T12:34:21.889Z,46.64
2017-08-24T12:35:21.910Z,48.79
2017-08-24T12:36:22.501Z,47.57
2017-08-24T12:37:21.801Z,45.76
2017-08-24T12:38:21.956Z,47.36
2017-08-24T12:39:21.920Z,46.89
2017-08-24T12:40:22.406Z,47.19
2017-08-24T12:41:21.930Z,48.31
2017-08-24T12:42:21.849Z,49.51
2017-08-24T12:43:21.816Z,49.13
2017-08-24T12:44:21.834Z,52.28
2017-08-24T12:45:21.859Z,48.51
2017-08-24T12:46:21.891Z,47.81
2017-08-24T12:47:21.825Z,48.31